Berlin, Michigan
Current Conditions -  °F | °C
As of 3:14 AM on Monday 22 Dec 2014 (Local Time) from KD95 Reporting Station
Clear Clear  
Wind Chill: 26°   Ceiling: Unl
Heat Index: 26°   Visibility: 7mi
Dew Point: 23°   Wind: 3mph
Humidity: 90%   Direction: 130°SE
Pressure: 30.14"   Gusts: NA
Location:  42.9384°N, 82.9255°W
Report Text: KD95 220814Z AUTO 13003KT 7SM CLR M03/M05 A3014 RMK AO2 T10351049
Loading
Personal Weather Stations






























Interactive Weather Map New forecast layout! Learn more

10-Day Weather Forecast

Advertisements
Track Severe Weather on mobile